NCAR-RAP Real-Time Weather Data

Output produced by METARs form (23 January 2018  15:52 UTC)
found at http://weather.rap.ucar.edu/surface/
 
RJFG 230900Z 32013KT 9999 FEW020 SCT030 08/04 Q1017
RJFG 230800Z 31015KT 9999 FEW025 SCT040 09/04 Q1016
RJFG 230700Z 31016KT 9999 FEW025 SCT030 BKN040 10/05 Q1016
RJFG 230600Z 31017KT 9999 FEW025 SCT030 BKN040 11/04 Q1015
RJFG 230500Z 31019KT 9999 FEW025 SCT035 BKN070 12/06 Q1015
RJFG 230400Z 31015G25KT 9999 FEW025 SCT035 BKN045 11/04 Q1015
RJFG 230300Z 32016KT 6000 FEW020 SCT025 BKN035 11/06 Q1016
RJFG 230200Z 30018KT 5000 BR FEW018 SCT020 BKN035 12/08 Q1016
RJFG 230100Z 32011KT 5000 BR FEW020 BKN040 12/08 Q1016
RJFG 230000Z 29017KT 6000 FEW030 SCT040 13/06 Q1016
RJFG 222330Z 31013KT 6000 FEW025 SCT030 BKN040 12/06 Q1016
RJFG 220900Z 31018G28KT 9999 FEW020 10/06 Q1012
RJFG 220800Z 31018KT 9999 FEW020 SCT030 10/06 Q1011
RJFG 220700Z 31018G31KT 9999 FEW015 SCT020 11/08 Q1010
RJFG 220600Z 31016KT 9999 FEW010 SCT015 12/09 Q1009
RJFG 220500Z 30011KT 9999 FEW008 SCT015 BKN020 12/11 Q1008
RJFG 220400Z 35006KT 240V040 9999 FEW004 SCT007 BKN015 12/11 Q1008
RJFG 220300Z 36006KT 310V070 8000 -SHRA FEW002 SCT005 BKN007 12/12 Q1008
RJFG 220200Z VRB06KT 8000 FEW001 SCT003 BKN005 13/13 Q1008
RJFG 220128Z 03006KT 350V090 8000 R31/1000VP1800U FEW002 SCT004 BKN006 13/13 Q1007 RMK 1ST002 3ST004 5ST006 A2975
RJFG 220115Z 03007KT 320V100 1500 R31/0700VP1800D -SHRA PRFG BR FEW001 SCT002 BKN003 12/12 Q1007 RMK 1ST001 3ST002 5ST003 A2975 FG SE
RJFG 220100Z 04008KT 330V090 5000 TSRA BR FEW001 SCT003 BKN005 FEW020CB 13/13 Q1007
RJFG 220043Z 02007KT 330V100 4000 R31/0800VP1800U TSRA BR FEW001 SCT003 BKN005 FEW020CB 13/13 Q1008 RMK 1ST001 3ST003 5ST005 1CB020 A2977 MOD TS 10KM N MOV NE P/RR
RJFG 220033Z 35009KT 300V090 1500 R31/0700V1000N +TSRA BR FEW002 SCT005 BKN007 FEW020CB 13/13 Q1007 RMK 1ST002 3ST005 5ST007 1CB020 A2975 MOD TS OHD MOV NE RI++
RJFG 220022Z 35008KT 320V050 3000 R31/1100VP1800D +TSRA PRFG BR FEW002 SCT005 BKN007 FEW015CB 13/13 Q1007 RMK 1ST002 3ST005 5ST007 1CB015 A2976 1500SE FBL TS 15KM N MOV NE FG SE RI++
RJFG 220011Z VRB06KT 3000 R31/1300VP1800N +SHRA PRFG BR FEW002 SCT005 BKN007 13/13 Q1007 RMK 1ST002 3ST005 5ST007 A2974 1500SE FG SE
RJFG 220000Z 07006KT 010V120 4000 R31/1300VP1800D SHRA PRFG BR FEW002 SCT005 BKN007 13/13 Q1007
RJFG 212340Z VRB02KT 4000 R31/1000VP1800D SHRA PRFG BR FEW001 SCT003 BKN005 13/13 Q1007 RMK 1ST001 3ST003 5ST005 A2975 1000SE FG SE
RJFG 212330Z VRB03KT 4000 R31/1800D SHRA PRFG BR FEW003 SCT005 BKN007 13/12 Q1007
RJFG 212310Z 03006KT 360V070 4000 SHRA PRFG BR FEW003 SCT005 BKN007 13/13 Q1008 RMK 1ST003 3ST005 5ST007 A2977 FG SE
RJFG 210900Z 35001KT 9999 FEW025 SCT140 12/09 Q1017
RJFG 210800Z VRB02KT 9999 FEW030 SCT150 13/09 Q1016
RJFG 210700Z 29003KT 260V340 9999 FEW030 SCT160 14/05 Q1016
RJFG 210600Z 28004KT 220V320 9999 FEW025 14/04 Q1016
RJFG 210500Z 29008KT 9999 FEW025 14/03 Q1016
RJFG 210400Z 29010KT 9999 FEW025 14/01 Q1017